sensor_id;sensor_type;location;lat;lon;timestamp;pressure;altitude;pressure_sealevel;temperature;humidity
21760;BME280;11041;50.854;20.580;2023-11-18T00:01:38;98641.72;;;1.67;100.00
21760;BME280;11041;50.854;20.580;2023-11-18T00:04:05;98655.00;;;1.64;100.00
21760;BME280;11041;50.854;20.580;2023-11-18T00:06:35;98645.53;;;1.66;100.00
21760;BME280;11041;50.854;20.580;2023-11-18T00:09:02;98643.06;;;1.65;100.00
21760;BME280;11041;50.854;20.580;2023-11-18T00:11:28;98642.28;;;1.69;100.00
21760;BME280;11041;50.854;20.580;2023-11-18T00:13:55;98638.78;;;1.69;100.00
21760;BME280;11041;50.854;20.580;2023-11-18T00:16:21;98646.13;;;1.74;100.00
21760;BME280;11041;50.854;20.580;2023-11-18T00:18:48;98643.69;;;1.77;100.00
21760;BME280;11041;50.854;20.580;2023-11-18T00:21:15;98646.72;;;1.81;100.00
21760;BME280;11041;50.854;20.580;2023-11-18T00:23:41;98656.22;;;1.83;100.00
21760;BME280;11041;50.854;20.580;2023-11-18T00:26:08;98649.16;;;1.82;100.00
21760;BME280;11041;50.854;20.580;2023-11-18T00:28:36;98648.13;;;1.88;100.00
21760;BME280;11041;50.854;20.580;2023-11-18T00:31:03;98655.16;;;1.89;100.00
21760;BME280;11041;50.854;20.580;2023-11-18T00:33:31;98651.88;;;1.87;100.00
21760;BME280;11041;50.854;20.580;2023-11-18T00:35:58;98650.47;;;1.80;100.00
21760;BME280;11041;50.854;20.580;2023-11-18T00:38:26;98660.47;;;1.74;100.00
21760;BME280;11041;50.854;20.580;2023-11-18T00:40:53;98665.09;;;1.74;100.00
21760;BME280;11041;50.854;20.580;2023-11-18T00:43:19;98651.00;;;1.77;100.00
21760;BME280;11041;50.854;20.580;2023-11-18T00:45:45;98660.22;;;1.76;100.00
21760;BME280;11041;50.854;20.580;2023-11-18T00:48:13;98664.31;;;1.78;100.00
21760;BME280;11041;50.854;20.580;2023-11-18T00:50:41;98656.72;;;1.80;100.00
21760;BME280;11041;50.854;20.580;2023-11-18T00:53:08;98662.97;;;1.81;100.00
21760;BME280;11041;50.854;20.580;2023-11-18T00:55:34;98659.19;;;1.82;100.00
21760;BME280;11041;50.854;20.580;2023-11-18T00:58:01;98659.97;;;1.82;100.00
21760;BME280;11041;50.854;20.580;2023-11-18T01:00:27;98666.50;;;1.81;100.00
21760;BME280;11041;50.854;20.580;2023-11-18T01:02:54;98662.97;;;1.81;100.00
21760;BME280;11041;50.854;20.580;2023-11-18T01:05:21;98671.94;;;1.86;100.00
21760;BME280;11041;50.854;20.580;2023-11-18T01:07:47;98670.84;;;1.87;100.00
21760;BME280;11041;50.854;20.580;2023-11-18T01:10:14;98675.78;;;1.90;100.00
21760;BME280;11041;50.854;20.580;2023-11-18T01:12:41;98672.22;;;1.90;100.00
21760;BME280;11041;50.854;20.580;2023-11-18T01:15:10;98675.75;;;1.85;100.00
21760;BME280;11041;50.854;20.580;2023-11-18T01:17:37;98663.78;;;1.81;100.00
21760;BME280;11041;50.854;20.580;2023-11-18T01:20:04;98668.59;;;1.74;100.00
21760;BME280;11041;50.854;20.580;2023-11-18T01:22:37;98673.19;;;1.68;100.00
21760;BME280;11041;50.854;20.580;2023-11-18T01:25:05;98672.81;;;1.60;100.00
21760;BME280;11041;50.854;20.580;2023-11-18T01:27:32;98670.31;;;1.53;100.00
21760;BME280;11041;50.854;20.580;2023-11-18T01:30:02;98675.47;;;1.49;100.00
21760;BME280;11041;50.854;20.580;2023-11-18T01:32:32;98679.75;;;1.45;100.00
21760;BME280;11041;50.854;20.580;2023-11-18T01:34:58;98684.03;;;1.41;100.00
21760;BME280;11041;50.854;20.580;2023-11-18T01:37:25;98677.81;;;1.41;100.00
21760;BME280;11041;50.854;20.580;2023-11-18T01:39:51;98677.25;;;1.39;100.00
21760;BME280;11041;50.854;20.580;2023-11-18T01:42:18;98691.06;;;1.37;100.00
21760;BME280;11041;50.854;20.580;2023-11-18T01:44:45;98679.66;;;1.35;100.00
21760;BME280;11041;50.854;20.580;2023-11-18T01:47:11;98678.81;;;1.35;100.00
21760;BME280;11041;50.854;20.580;2023-11-18T01:49:39;98679.91;;;1.34;100.00
21760;BME280;11041;50.854;20.580;2023-11-18T01:52:07;98678.00;;;1.34;100.00
21760;BME280;11041;50.854;20.580;2023-11-18T01:54:37;98677.44;;;1.32;100.00
21760;BME280;11041;50.854;20.580;2023-11-18T01:57:05;98675.81;;;1.31;100.00
21760;BME280;11041;50.854;20.580;2023-11-18T01:59:36;98684.19;;;1.30;100.00
21760;BME280;11041;50.854;20.580;2023-11-18T02:02:05;98682.56;;;1.28;100.00
21760;BME280;11041;50.854;20.580;2023-11-18T02:04:31;98687.19;;;1.28;100.00
21760;BME280;11041;50.854;20.580;2023-11-18T02:06:58;98682.31;;;1.30;100.00
21760;BME280;11041;50.854;20.580;2023-11-18T02:09:29;98689.59;;;1.30;100.00
21760;BME280;11041;50.854;20.580;2023-11-18T02:14:40;98690.97;;;1.32;100.00
21760;BME280;11041;50.854;20.580;2023-11-18T02:17:12;98690.97;;;1.32;100.00
21760;BME280;11041;50.854;20.580;2023-11-18T02:19:40;98695.28;;;1.28;100.00
21760;BME280;11041;50.854;20.580;2023-11-18T02:22:08;98696.34;;;1.27;100.00
21760;BME280;11041;50.854;20.580;2023-11-18T02:24:37;98695.53;;;1.26;100.00
21760;BME280;11041;50.854;20.580;2023-11-18T02:27:05;98694.72;;;1.26;100.00
21760;BME280;11041;50.854;20.580;2023-11-18T02:29:38;98705.31;;;1.27;100.00
21760;BME280;11041;50.854;20.580;2023-11-18T02:32:33;98696.34;;;1.27;100.00
21760;BME280;11041;50.854;20.580;2023-11-18T02:35:09;98707.44;;;1.25;100.00
21760;BME280;11041;50.854;20.580;2023-11-18T02:37:43;98700.13;;;1.26;100.00
21760;BME280;11041;50.854;20.580;2023-11-18T02:40:18;98705.56;;;1.26;100.00
21760;BME280;11041;50.854;20.580;2023-11-18T02:42:46;98705.84;;;1.30;100.00
21760;BME280;11041;50.854;20.580;2023-11-18T02:45:15;98711.00;;;1.31;100.00
21760;BME280;11041;50.854;20.580;2023-11-18T02:47:46;98708.88;;;1.33;100.00
21760;BME280;11041;50.854;20.580;2023-11-18T02:50:14;98712.63;;;1.32;100.00
21760;BME280;11041;50.854;20.580;2023-11-18T02:52:42;98717.81;;;1.34;100.00
21760;BME280;11041;50.854;20.580;2023-11-18T02:55:10;98711.59;;;1.33;100.00
21760;BME280;11041;50.854;20.580;2023-11-18T02:57:38;98715.34;;;1.32;100.00
21760;BME280;11041;50.854;20.580;2023-11-18T03:00:08;98723.75;;;1.31;100.00
21760;BME280;11041;50.854;20.580;2023-11-18T03:02:49;98722.94;;;1.30;100.00
21760;BME280;11041;50.854;20.580;2023-11-18T03:05:18;98725.63;;;1.30;100.00
21760;BME280;11041;50.854;20.580;2023-11-18T03:07:51;98729.97;;;1.31;100.00
21760;BME280;11041;50.854;20.580;2023-11-18T03:10:25;98732.16;;;1.34;100.00
21760;BME280;11041;50.854;20.580;2023-11-18T03:12:55;98730.56;;;1.38;100.00
21760;BME280;11041;50.854;20.580;2023-11-18T03:15:25;98731.66;;;1.37;100.00
21760;BME280;11041;50.854;20.580;2023-11-18T03:17:52;98738.38;;;1.35;100.00
21760;BME280;11041;50.854;20.580;2023-11-18T03:20:22;98744.31;;;1.32;100.00
21760;BME280;11041;50.854;20.580;2023-11-18T03:22:55;98740.69;;;1.21;100.00
21760;BME280;11041;50.854;20.580;2023-11-18T03:25:24;98740.66;;;1.16;100.00
21760;BME280;11041;50.854;20.580;2023-11-18T03:27:54;98745.50;;;1.14;100.00
21760;BME280;11041;50.854;20.580;2023-11-18T03:30:23;98746.81;;;1.11;100.00
21760;BME280;11041;50.854;20.580;2023-11-18T03:32:55;98747.28;;;1.08;100.00
21760;BME280;11041;50.854;20.580;2023-11-18T03:35:21;98754.31;;;1.04;100.00
21760;BME280;11041;50.854;20.580;2023-11-18T03:37:51;98750.78;;;1.03;100.00
21760;BME280;11041;50.854;20.580;2023-11-18T03:40:18;98753.22;;;1.05;100.00
21760;BME280;11041;50.854;20.580;2023-11-18T03:42:44;98757.00;;;1.04;100.00
21760;BME280;11041;50.854;20.580;2023-11-18T03:45:17;98756.19;;;1.03;100.00
21760;BME280;11041;50.854;20.580;2023-11-18T03:47:47;98768.06;;;1.02;100.00
21760;BME280;11041;50.854;20.580;2023-11-18T03:50:17;98764.22;;;0.98;100.00
21760;BME280;11041;50.854;20.580;2023-11-18T03:52:47;98774.75;;;0.95;100.00
21760;BME280;11041;50.854;20.580;2023-11-18T03:55:15;98774.75;;;0.95;100.00
21760;BME280;11041;50.854;20.580;2023-11-18T03:57:47;98770.66;;;0.92;100.00
21760;BME280;11041;50.854;20.580;2023-11-18T04:00:16;98770.66;;;0.92;100.00
21760;BME280;11041;50.854;20.580;2023-11-18T04:02:43;98771.72;;;0.91;100.00
21760;BME280;11041;50.854;20.580;2023-11-18T04:05:14;98771.25;;;0.94;100.00
21760;BME280;11041;50.854;20.580;2023-11-18T04:07:43;98774.25;;;0.98;100.00
21760;BME280;11041;50.854;20.580;2023-11-18T04:10:09;98777.22;;;0.96;100.00
21760;BME280;11041;50.854;20.580;2023-11-18T04:12:39;98778.84;;;0.97;100.00
21760;BME280;11041;50.854;20.580;2023-11-18T04:15:12;98782.63;;;0.96;100.00
21760;BME280;11041;50.854;20.580;2023-11-18T04:17:42;98777.22;;;0.96;100.00
21760;BME280;11041;50.854;20.580;2023-11-18T04:20:13;98772.91;;;1.00;100.00
21760;BME280;11041;50.854;20.580;2023-11-18T04:22:44;98785.97;;;1.03;100.00
21760;BME280;11041;50.854;20.580;2023-11-18T04:25:12;98786.78;;;1.04;100.00
21760;BME280;11041;50.854;20.580;2023-11-18T04:27:39;98793.56;;;1.06;100.00
21760;BME280;11041;50.854;20.580;2023-11-18T04:30:10;98782.75;;;1.06;100.00
21760;BME280;11041;50.854;20.580;2023-11-18T04:32:42;98786.50;;;1.05;100.00
21760;BME280;11041;50.854;20.580;2023-11-18T04:35:12;98791.38;;;1.03;100.00
21760;BME280;11041;50.854;20.580;2023-11-18T04:37:42;98785.41;;;1.01;100.00
21760;BME280;11041;50.854;20.580;2023-11-18T04:40:11;98793.75;;;1.00;100.00
21760;BME280;11041;50.854;20.580;2023-11-18T04:42:44;98790.81;;;1.01;100.00
21760;BME280;11041;50.854;20.580;2023-11-18T04:45:11;98805.97;;;1.02;100.00
21760;BME280;11041;50.854;20.580;2023-11-18T04:47:37;98800.56;;;1.02;100.00
21760;BME280;11041;50.854;20.580;2023-11-18T04:50:05;98797.53;;;0.99;100.00
21760;BME280;11041;50.854;20.580;2023-11-18T04:52:31;98793.44;;;0.96;100.00
21760;BME280;11041;50.854;20.580;2023-11-18T04:55:01;98790.75;;;0.96;100.00
21760;BME280;11041;50.854;20.580;2023-11-18T04:57:30;98796.97;;;0.97;100.00
21760;BME280;11041;50.854;20.580;2023-11-18T05:00:00;98799.09;;;0.95;100.00
21760;BME280;11041;50.854;20.580;2023-11-18T05:02:41;98804.75;;;0.93;100.00
21760;BME280;11041;50.854;20.580;2023-11-18T05:05:14;98804.75;;;0.93;100.00
21760;BME280;11041;50.854;20.580;2023-11-18T05:07:43;98799.91;;;0.95;100.00
21760;BME280;11041;50.854;20.580;2023-11-18T05:10:10;98811.06;;;0.99;100.00
21760;BME280;11041;50.854;20.580;2023-11-18T05:12:38;98808.38;;;0.99;100.00
21760;BME280;11041;50.854;20.580;2023-11-18T05:15:07;98808.38;;;0.99;100.00
21760;BME280;11041;50.854;20.580;2023-11-18T05:17:41;98813.50;;;1.00;100.00
21760;BME280;11041;50.854;20.580;2023-11-18T05:20:12;98813.78;;;0.99;100.00
21760;BME280;11041;50.854;20.580;2023-11-18T05:22:39;98813.78;;;0.99;100.00
21760;BME280;11041;50.854;20.580;2023-11-18T05:25:12;98808.38;;;0.99;100.00
21760;BME280;11041;50.854;20.580;2023-11-18T05:27:42;98813.78;;;0.99;100.00
21760;BME280;11041;50.854;20.580;2023-11-18T05:30:12;98817.81;;;0.96;100.00
21760;BME280;11041;50.854;20.580;2023-11-18T05:32:41;98816.97;;;0.96;100.00
21760;BME280;11041;50.854;20.580;2023-11-18T05:35:12;98823.22;;;0.96;100.00
21760;BME280;11041;50.854;20.580;2023-11-18T05:37:40;98822.66;;;0.94;100.00
21760;BME280;11041;50.854;20.580;2023-11-18T05:40:13;98830.50;;;0.96;100.00
21760;BME280;11041;50.854;20.580;2023-11-18T05:42:41;98831.81;;;0.93;100.00
21760;BME280;11041;50.854;20.580;2023-11-18T05:45:12;98827.41;;;0.87;100.00
21760;BME280;11041;50.854;20.580;2023-11-18T05:47:46;98831.44;;;0.84;100.00
21760;BME280;11041;50.854;20.580;2023-11-18T05:50:20;98833.31;;;0.84;100.00
21760;BME280;11041;50.854;20.580;2023-11-18T05:52:51;98835.47;;;0.82;100.00
21760;BME280;11041;50.854;20.580;2023-11-18T05:55:21;98839.72;;;0.78;100.00
21760;BME280;11041;50.854;20.580;2023-11-18T05:57:48;98840.78;;;0.77;100.00
21760;BME280;11041;50.854;20.580;2023-11-18T06:00:20;98841.88;;;0.76;100.00
21760;BME280;11041;50.854;20.580;2023-11-18T06:02:53;98838.00;;;0.72;100.00
21760;BME280;11041;50.854;20.580;2023-11-18T06:05:23;98844.16;;;0.67;100.00
21760;BME280;11041;50.854;20.580;2023-11-18T06:07:55;98846.56;;;0.63;100.00
21760;BME280;11041;50.854;20.580;2023-11-18T06:10:30;98843.84;;;0.63;100.00
21760;BME280;11041;50.854;20.580;2023-11-18T06:13:00;98844.66;;;0.64;100.00
21760;BME280;11041;50.854;20.580;2023-11-18T06:15:29;98854.66;;;0.63;100.00
21760;BME280;11041;50.854;20.580;2023-11-18T06:18:00;98860.31;;;0.62;100.00
21760;BME280;11041;50.854;20.580;2023-11-18T06:20:28;98859.75;;;0.60;100.00
21760;BME280;11041;50.854;20.580;2023-11-18T06:22:57;98867.63;;;0.61;100.00
21760;BME280;11041;50.854;20.580;2023-11-18T06:25:27;98870.91;;;0.63;100.00
21760;BME280;11041;50.854;20.580;2023-11-18T06:28:00;98872.03;;;0.68;100.00
21760;BME280;11041;50.854;20.580;2023-11-18T06:30:27;98872.84;;;0.68;100.00
21760;BME280;11041;50.854;20.580;2023-11-18T06:32:59;98877.75;;;0.71;100.00
21760;BME280;11041;50.854;20.580;2023-11-18T06:35:25;98880.47;;;0.71;100.00
21760;BME280;11041;50.854;20.580;2023-11-18T06:37:52;98877.53;;;0.73;100.00
21760;BME280;11041;50.854;20.580;2023-11-18T06:40:25;98870.97;;;0.69;100.00
21760;BME280;11041;50.854;20.580;2023-11-18T06:42:54;98873.66;;;0.69;100.00
21760;BME280;11041;50.854;20.580;2023-11-18T06:45:32;98886.63;;;0.67;100.00
21760;BME280;11041;50.854;20.580;2023-11-18T06:48:09;98889.59;;;0.65;100.00
21760;BME280;11041;50.854;20.580;2023-11-18T06:50:40;98897.94;;;0.63;100.00
21760;BME280;11041;50.854;20.580;2023-11-18T06:53:12;98899.56;;;0.64;100.00
21760;BME280;11041;50.854;20.580;2023-11-18T06:55:42;98897.94;;;0.63;100.00
21760;BME280;11041;50.854;20.580;2023-11-18T06:58:12;98894.66;;;0.61;100.00
21760;BME280;11041;50.854;20.580;2023-11-18T07:00:39;98901.13;;;0.60;100.00
21760;BME280;11041;50.854;20.580;2023-11-18T07:03:06;98898.69;;;0.59;100.00
21760;BME280;11041;50.854;20.580;2023-11-18T07:05:33;98903.28;;;0.58;100.00
21760;BME280;11041;50.854;20.580;2023-11-18T07:08:03;98919.22;;;0.60;100.00
21760;BME280;11041;50.854;20.580;2023-11-18T07:10:31;98920.38;;;0.64;100.00
21760;BME280;11041;50.854;20.580;2023-11-18T07:12:57;98926.59;;;0.64;100.00
21760;BME280;11041;50.854;20.580;2023-11-18T07:15:26;98933.66;;;0.66;100.00
21760;BME280;11041;50.854;20.580;2023-11-18T07:17:58;98926.13;;;0.68;100.00
21760;BME280;11041;50.854;20.580;2023-11-18T07:20:31;98937.41;;;0.64;100.00
21760;BME280;11041;50.854;20.580;2023-11-18T07:23:01;98934.72;;;0.64;100.00
21760;BME280;11041;50.854;20.580;2023-11-18T07:25:27;98944.00;;;0.69;100.00
21760;BME280;11041;50.854;20.580;2023-11-18T07:27:56;98941.38;;;0.74;100.00
21760;BME280;11041;50.854;20.580;2023-11-18T07:30:27;98942.16;;;0.74;100.00
21760;BME280;11041;50.854;20.580;2023-11-18T07:32:56;98935.13;;;0.73;100.00
21760;BME280;11041;50.854;20.580;2023-11-18T07:35:26;98930.22;;;0.70;100.00
21760;BME280;11041;50.854;20.580;2023-11-18T07:37:54;98935.88;;;0.69;100.00
21760;BME280;11041;50.854;20.580;2023-11-18T07:40:20;98927.75;;;0.69;100.00
21760;BME280;11041;50.854;20.580;2023-11-18T07:42:57;98922.84;;;0.66;100.00
21760;BME280;11041;50.854;20.580;2023-11-18T07:45:28;98926.94;;;0.68;100.00
21760;BME280;11041;50.854;20.580;2023-11-18T07:47:55;98933.97;;;0.69;100.00
21760;BME280;11041;50.854;20.580;2023-11-18T07:50:22;98931.03;;;0.71;100.00
21760;BME280;11041;50.854;20.580;2023-11-18T07:52:50;98939.16;;;0.71;100.00
21760;BME280;11041;50.854;20.580;2023-11-18T07:55:16;98945.16;;;0.73;100.00
21760;BME280;11041;50.854;20.580;2023-11-18T07:57:44;98951.38;;;0.73;100.00
21760;BME280;11041;50.854;20.580;2023-11-18T08:00:11;98949.47;;;0.74;100.00
21760;BME280;11041;50.854;20.580;2023-11-18T08:02:41;98948.97;;;0.77;100.00
21760;BME280;11041;50.854;20.580;2023-11-18T08:05:08;98953.84;;;0.75;100.00
21760;BME280;11041;50.854;20.580;2023-11-18T08:07:45;98958.41;;;0.74;100.00
21760;BME280;11041;50.854;20.580;2023-11-18T08:10:13;98958.66;;;0.73;100.00
21760;BME280;11041;50.854;20.580;2023-11-18T08:12:40;98969.47;;;0.73;100.00
21760;BME280;11041;50.854;20.580;2023-11-18T08:15:07;98969.47;;;0.73;100.00
21760;BME280;11041;50.854;20.580;2023-11-18T08:17:38;98973.09;;;0.78;100.00
21760;BME280;11041;50.854;20.580;2023-11-18T08:20:06;98973.44;;;0.82;100.00
21760;BME280;11041;50.854;20.580;2023-11-18T08:22:43;98974.72;;;0.79;100.00
21760;BME280;11041;50.854;20.580;2023-11-18T08:25:13;98983.66;;;0.80;100.00
21760;BME280;11041;50.854;20.580;2023-11-18T08:27:45;98994.66;;;0.73;100.00
21760;BME280;11041;50.854;20.580;2023-11-18T08:30:12;98984.78;;;0.67;100.00
21760;BME280;11041;50.854;20.580;2023-11-18T08:32:42;98986.94;;;0.65;100.00
21760;BME280;11041;50.854;20.580;2023-11-18T08:35:11;98993.41;;;0.64;100.00
21760;BME280;11041;50.854;20.580;2023-11-18T08:37:44;98999.63;;;0.64;100.00
21760;BME280;11041;50.854;20.580;2023-11-18T08:40:11;98997.50;;;0.67;100.00
21760;BME280;11041;50.854;20.580;2023-11-18T08:42:49;99000.19;;;0.67;100.00
21760;BME280;11041;50.854;20.580;2023-11-18T08:45:22;99012.31;;;0.64;100.00
21760;BME280;11041;50.854;20.580;2023-11-18T08:47:57;99014.00;;;0.65;100.00
21760;BME280;11041;50.854;20.580;2023-11-18T08:50:29;99012.41;;;0.69;100.00
21760;BME280;11041;50.854;20.580;2023-11-18T08:52:57;99018.41;;;0.71;100.00
21760;BME280;11041;50.854;20.580;2023-11-18T08:55:29;99016.50;;;0.72;100.00
21760;BME280;11041;50.854;20.580;2023-11-18T08:58:12;99024.16;;;0.75;100.00
21760;BME280;11041;50.854;20.580;2023-11-18T09:01:01;99020.38;;;0.76;100.00
21760;BME280;11041;50.854;20.580;2023-11-18T09:03:31;99014.00;;;0.82;100.00
21760;BME280;11041;50.854;20.580;2023-11-18T09:06:10;99026.75;;;0.87;100.00
21760;BME280;11041;50.854;20.580;2023-11-18T09:08:54;99034.72;;;0.93;100.00
21760;BME280;11041;50.854;20.580;2023-11-18T09:11:23;99027.44;;;0.94;100.00
21760;BME280;11041;50.854;20.580;2023-11-18T09:13:53;99027.44;;;0.94;100.00
21760;BME280;11041;50.854;20.580;2023-11-18T09:16:26;99035.22;;;0.90;100.00
21760;BME280;11041;50.854;20.580;2023-11-18T09:18:59;99034.66;;;0.88;100.00
21760;BME280;11041;50.854;20.580;2023-11-18T09:21:29;99033.03;;;0.87;100.00
21760;BME280;11041;50.854;20.580;2023-11-18T09:23:56;99033.84;;;0.88;100.00
21760;BME280;11041;50.854;20.580;2023-11-18T09:26:28;99037.34;;;0.88;100.00
21760;BME280;11041;50.854;20.580;2023-11-18T09:28:59;99034.06;;;0.86;100.00
21760;BME280;11041;50.854;20.580;2023-11-18T09:31:27;99035.38;;;0.83;100.00
21760;BME280;11041;50.854;20.580;2023-11-18T09:33:56;99035.78;;;0.75;100.00
21760;BME280;11041;50.854;20.580;2023-11-18T09:36:25;99036.03;;;0.74;100.00
21760;BME280;11041;50.854;20.580;2023-11-18T09:38:59;99042.03;;;0.76;100.00
21760;BME280;11041;50.854;20.580;2023-11-18T09:41:27;99046.94;;;0.79;100.00
21760;BME280;11041;50.854;20.580;2023-11-18T09:43:58;99047.50;;;0.81;100.00
21760;BME280;11041;50.854;20.580;2023-11-18T09:46:35;99050.22;;;0.81;100.00
21760;BME280;11041;50.854;20.580;2023-11-18T09:49:22;99057.84;;;0.84;100.00
21760;BME280;11041;50.854;20.580;2023-11-18T09:51:57;99060.53;;;0.84;100.00
21760;BME280;11041;50.854;20.580;2023-11-18T09:54:40;99061.63;;;0.83;100.00
21760;BME280;11041;50.854;20.580;2023-11-18T09:57:47;99069.38;;;0.79;100.00
21760;BME280;11041;50.854;20.580;2023-11-18T10:00:27;99069.56;;;0.73;100.00
21760;BME280;11041;50.854;20.580;2023-11-18T10:03:13;99079.72;;;0.66;100.00
21760;BME280;11041;50.854;20.580;2023-11-18T10:05:45;99079.34;;;0.62;100.00
21760;BME280;11041;50.854;20.580;2023-11-18T10:08:18;99083.94;;;0.61;100.00
21760;BME280;11041;50.854;20.580;2023-11-18T10:10:45;99079.63;;;0.60;100.00
21760;BME280;11041;50.854;20.580;2023-11-18T10:13:14;99076.66;;;0.62;100.00
21760;BME280;11041;50.854;20.580;2023-11-18T10:15:51;99072.31;;;0.61;100.00
21760;BME280;11041;50.854;20.580;2023-11-18T10:18:26;99079.13;;;0.63;100.00
21760;BME280;11041;50.854;20.580;2023-11-18T10:20:54;99076.75;;;0.67;100.00
21760;BME280;11041;50.854;20.580;2023-11-18T10:23:26;99075.78;;;0.73;100.00
21760;BME280;11041;50.854;20.580;2023-11-18T10:26:00;99084.81;;;0.79;100.00
21760;BME280;11041;50.854;20.580;2023-11-18T10:28:36;99090.78;;;0.81;100.00
21760;BME280;11041;50.854;20.580;2023-11-18T10:31:07;99095.97;;;0.82;100.00
21760;BME280;11041;50.854;20.580;2023-11-18T10:33:40;99092.44;;;0.82;100.00
21760;BME280;11041;50.854;20.580;2023-11-18T10:36:20;99097.88;;;0.82;100.00
21760;BME280;11041;50.854;20.580;2023-11-18T10:38:52;99090.78;;;0.81;100.00
21760;BME280;11041;50.854;20.580;2023-11-18T10:41:22;99094.91;;;0.83;100.00
21760;BME280;11041;50.854;20.580;2023-11-18T10:44:08;99097.28;;;0.80;99.76
21760;BME280;11041;50.854;20.580;2023-11-18T10:46:56;99102.09;;;0.78;99.44
21760;BME280;11041;50.854;20.580;2023-11-18T10:49:27;99104.22;;;0.76;100.00
21760;BME280;11041;50.854;20.580;2023-11-18T10:51:56;99103.28;;;0.82;100.00
21760;BME280;11041;50.854;20.580;2023-11-18T10:54:25;99092.78;;;0.85;100.00
21760;BME280;11041;50.854;20.580;2023-11-18T10:56:53;99104.50;;;0.91;100.00
21760;BME280;11041;50.854;20.580;2023-11-18T10:59:22;99100.25;;;0.95;100.00
21760;BME280;11041;50.854;20.580;2023-11-18T11:01:49;99106.81;;;0.99;100.00
21760;BME280;11041;50.854;20.580;2023-11-18T11:04:20;99104.13;;;0.99;100.00
21760;BME280;11041;50.854;20.580;2023-11-18T11:06:51;99120.44;;;1.04;100.00
21760;BME280;11041;50.854;20.580;2023-11-18T11:09:22;99119.13;;;1.07;100.00
21760;BME280;11041;50.854;20.580;2023-11-18T11:11:57;99123.72;;;1.06;100.00
21760;BME280;11041;50.854;20.580;2023-11-18T11:14:43;99126.44;;;1.06;100.00
21760;BME280;11041;50.854;20.580;2023-11-18T11:17:19;99133.16;;;1.04;100.00
21760;BME280;11041;50.854;20.580;2023-11-18T11:20:09;99137.16;;;1.01;100.00
21760;BME280;11041;50.854;20.580;2023-11-18T11:23:25;99139.28;;;0.99;100.00
21760;BME280;11041;50.854;20.580;2023-11-18T11:26:42;99142.50;;;0.96;100.00
21760;BME280;11041;50.854;20.580;2023-11-18T11:29:57;99146.47;;;0.94;100.00
21760;BME280;11041;50.854;20.580;2023-11-18T11:32:45;99146.75;;;0.92;100.00
21760;BME280;11041;50.854;20.580;2023-11-18T11:35:23;99149.69;;;0.91;100.00
21760;BME280;11041;50.854;20.580;2023-11-18T11:37:59;99149.44;;;0.92;100.00
21760;BME280;11041;50.854;20.580;2023-11-18T11:40:32;99151.88;;;0.94;100.00
21760;BME280;11041;50.854;20.580;2023-11-18T11:43:03;99155.44;;;0.94;100.00
21760;BME280;11041;50.854;20.580;2023-11-18T11:45:34;99156.03;;;0.96;100.00
21760;BME280;11041;50.854;20.580;2023-11-18T11:48:05;99160.13;;;0.99;100.00
21760;BME280;11041;50.854;20.580;2023-11-18T11:51:09;99161.25;;;1.03;100.00
21760;BME280;11041;50.854;20.580;2023-11-18T11:54:07;99163.50;;;1.06;100.00
21760;BME280;11041;50.854;20.580;2023-11-18T11:56:49;99170.56;;;1.07;100.00
21760;BME280;11041;50.854;20.580;2023-11-18T11:59:55;99173.16;;;1.02;100.00
21760;BME280;11041;50.854;20.580;2023-11-18T12:02:26;99175.06;;;1.01;100.00
21760;BME280;11041;50.854;20.580;2023-11-18T12:05:00;99186.09;;;1.00;100.00
21760;BME280;11041;50.854;20.580;2023-11-18T12:07:39;99171.50;;;1.01;100.00
21760;BME280;11041;50.854;20.580;2023-11-18T12:10:08;99180.94;;;0.98;100.00
21760;BME280;11041;50.854;20.580;2023-11-18T12:12:48;99177.66;;;0.96;99.50
21760;BME280;11041;50.854;20.580;2023-11-18T12:15:55;99189.53;;;0.95;99.68
21760;BME280;11041;50.854;20.580;2023-11-18T12:18:34;99191.66;;;0.93;99.30
21760;BME280;11041;50.854;20.580;2023-11-18T12:21:08;99190.03;;;0.92;99.95
21760;BME280;11041;50.854;20.580;2023-11-18T12:24:22;99191.06;;;0.91;99.85
21760;BME280;11041;50.854;20.580;2023-11-18T12:26:53;99192.16;;;0.90;100.00
21760;BME280;11041;50.854;20.580;2023-11-18T12:29:34;99192.97;;;0.91;100.00
21760;BME280;11041;50.854;20.580;2023-11-18T12:32:02;99200.28;;;0.90;100.00
21760;BME280;11041;50.854;20.580;2023-11-18T12:34:52;99200.84;;;0.92;100.00
21760;BME280;11041;50.854;20.580;2023-11-18T12:43:48;99210.16;;;0.96;100.00
21760;BME280;11041;50.854;20.580;2023-11-18T12:46:48;99211.19;;;0.95;99.89
21760;BME280;11041;50.854;20.580;2023-11-18T12:49:23;99216.81;;;0.94;100.00
21760;BME280;11041;50.854;20.580;2023-11-18T12:51:55;99224.38;;;0.92;100.00
21760;BME280;11041;50.854;20.580;2023-11-18T12:54:25;99225.91;;;0.88;100.00
21760;BME280;11041;50.854;20.580;2023-11-18T12:56:55;99227.81;;;0.87;99.58
21760;BME280;11041;50.854;20.580;2023-11-18T12:59:23;99240.16;;;0.83;99.95
21760;BME280;11041;50.854;20.580;2023-11-18T13:01:52;99237.47;;;0.83;100.00
21760;BME280;11041;50.854;20.580;2023-11-18T13:04:31;99247.22;;;0.84;100.00
21760;BME280;11041;50.854;20.580;2023-11-18T13:07:00;99248.78;;;0.80;100.00
21760;BME280;11041;50.854;20.580;2023-11-18T13:09:34;99253.22;;;0.74;100.00
21760;BME280;11041;50.854;20.580;2023-11-18T13:12:06;99259.72;;;0.73;100.00
21760;BME280;11041;50.854;20.580;2023-11-18T13:14:40;99257.25;;;0.72;100.00
21760;BME280;11041;50.854;20.580;2023-11-18T13:17:15;99263.72;;;0.71;100.00
21760;BME280;11041;50.854;20.580;2023-11-18T13:19:47;99265.84;;;0.69;100.00
21760;BME280;11041;50.854;20.580;2023-11-18T13:22:20;99270.91;;;0.65;100.00
21760;BME280;11041;50.854;20.580;2023-11-18T13:24:52;99273.25;;;0.61;100.00